sensor_id;sensor_type;location;lat;lon;timestamp;P1;durP1;ratioP1;P2;durP2;ratioP2
4462;SDS011;2244;50.200;8.220;2023-12-07T00:00:48;30.67;;;11.20;;
4462;SDS011;2244;50.200;8.220;2023-12-07T00:03:16;29.00;;;11.50;;
4462;SDS011;2244;50.200;8.220;2023-12-07T00:05:43;32.90;;;11.90;;
4462;SDS011;2244;50.200;8.220;2023-12-07T00:08:11;27.27;;;10.60;;
4462;SDS011;2244;50.200;8.220;2023-12-07T00:10:38;30.87;;;12.03;;
4462;SDS011;2244;50.200;8.220;2023-12-07T00:13:06;28.97;;;11.43;;
4462;SDS011;2244;50.200;8.220;2023-12-07T00:15:33;29.10;;;10.83;;
4462;SDS011;2244;50.200;8.220;2023-12-07T00:18:01;28.53;;;10.03;;
4462;SDS011;2244;50.200;8.220;2023-12-07T00:20:29;29.50;;;11.47;;
4462;SDS011;2244;50.200;8.220;2023-12-07T00:22:57;30.63;;;10.93;;
4462;SDS011;2244;50.200;8.220;2023-12-07T00:25:24;28.70;;;10.97;;
4462;SDS011;2244;50.200;8.220;2023-12-07T00:27:52;30.47;;;12.13;;
4462;SDS011;2244;50.200;8.220;2023-12-07T00:30:19;29.60;;;10.80;;
4462;SDS011;2244;50.200;8.220;2023-12-07T00:32:47;29.37;;;11.60;;
4462;SDS011;2244;50.200;8.220;2023-12-07T00:35:14;29.67;;;11.47;;
4462;SDS011;2244;50.200;8.220;2023-12-07T00:37:42;31.63;;;11.03;;
4462;SDS011;2244;50.200;8.220;2023-12-07T00:40:10;28.47;;;11.07;;
4462;SDS011;2244;50.200;8.220;2023-12-07T00:42:39;30.10;;;11.03;;
4462;SDS011;2244;50.200;8.220;2023-12-07T00:45:06;29.10;;;11.77;;
4462;SDS011;2244;50.200;8.220;2023-12-07T00:47:34;27.50;;;11.70;;
4462;SDS011;2244;50.200;8.220;2023-12-07T00:50:01;30.70;;;12.33;;
4462;SDS011;2244;50.200;8.220;2023-12-07T00:52:29;30.17;;;11.97;;
4462;SDS011;2244;50.200;8.220;2023-12-07T00:54:57;33.87;;;12.67;;
4462;SDS011;2244;50.200;8.220;2023-12-07T00:57:27;33.30;;;13.63;;
4462;SDS011;2244;50.200;8.220;2023-12-07T00:59:54;29.13;;;10.87;;
4462;SDS011;2244;50.200;8.220;2023-12-07T01:02:21;32.00;;;11.50;;
4462;SDS011;2244;50.200;8.220;2023-12-07T01:04:49;29.27;;;11.77;;
4462;SDS011;2244;50.200;8.220;2023-12-07T01:07:17;30.47;;;12.30;;
4462;SDS011;2244;50.200;8.220;2023-12-07T01:09:44;29.50;;;11.93;;
4462;SDS011;2244;50.200;8.220;2023-12-07T01:12:23;33.03;;;11.73;;
4462;SDS011;2244;50.200;8.220;2023-12-07T01:14:51;35.10;;;11.80;;
4462;SDS011;2244;50.200;8.220;2023-12-07T01:17:19;30.00;;;12.50;;
4462;SDS011;2244;50.200;8.220;2023-12-07T01:19:47;34.20;;;12.37;;
4462;SDS011;2244;50.200;8.220;2023-12-07T01:22:14;30.57;;;12.20;;
4462;SDS011;2244;50.200;8.220;2023-12-07T01:24:42;29.17;;;11.60;;
4462;SDS011;2244;50.200;8.220;2023-12-07T01:27:10;30.00;;;10.50;;
4462;SDS011;2244;50.200;8.220;2023-12-07T01:29:38;30.17;;;11.10;;
4462;SDS011;2244;50.200;8.220;2023-12-07T01:32:05;33.00;;;11.37;;
4462;SDS011;2244;50.200;8.220;2023-12-07T01:34:33;30.20;;;12.53;;
4462;SDS011;2244;50.200;8.220;2023-12-07T01:37:01;28.83;;;10.17;;
4462;SDS011;2244;50.200;8.220;2023-12-07T01:39:28;31.67;;;11.00;;
4462;SDS011;2244;50.200;8.220;2023-12-07T01:41:56;29.30;;;11.70;;
4462;SDS011;2244;50.200;8.220;2023-12-07T01:44:24;28.63;;;11.00;;
4462;SDS011;2244;50.200;8.220;2023-12-07T01:46:53;30.30;;;12.10;;
4462;SDS011;2244;50.200;8.220;2023-12-07T01:49:21;27.90;;;10.70;;
4462;SDS011;2244;50.200;8.220;2023-12-07T01:51:49;29.87;;;10.80;;
4462;SDS011;2244;50.200;8.220;2023-12-07T01:54:17;29.30;;;11.80;;
4462;SDS011;2244;50.200;8.220;2023-12-07T01:56:45;30.07;;;10.97;;
4462;SDS011;2244;50.200;8.220;2023-12-07T01:59:13;33.27;;;11.20;;
4462;SDS011;2244;50.200;8.220;2023-12-07T02:01:40;28.93;;;9.30;;
4462;SDS011;2244;50.200;8.220;2023-12-07T02:04:09;27.23;;;9.90;;
4462;SDS011;2244;50.200;8.220;2023-12-07T02:06:36;27.27;;;9.90;;
4462;SDS011;2244;50.200;8.220;2023-12-07T02:09:04;30.90;;;11.00;;
4462;SDS011;2244;50.200;8.220;2023-12-07T02:11:32;28.93;;;11.03;;
4462;SDS011;2244;50.200;8.220;2023-12-07T02:14:00;33.37;;;11.23;;
4462;SDS011;2244;50.200;8.220;2023-12-07T02:16:29;25.97;;;10.00;;
4462;SDS011;2244;50.200;8.220;2023-12-07T02:21:34;34.53;;;11.30;;
4462;SDS011;2244;50.200;8.220;2023-12-07T02:24:03;30.00;;;11.50;;
4462;SDS011;2244;50.200;8.220;2023-12-07T02:26:35;30.33;;;12.20;;
4462;SDS011;2244;50.200;8.220;2023-12-07T02:29:04;28.13;;;11.30;;
4462;SDS011;2244;50.200;8.220;2023-12-07T02:31:31;35.50;;;12.50;;
4462;SDS011;2244;50.200;8.220;2023-12-07T02:34:00;31.77;;;12.30;;
4462;SDS011;2244;50.200;8.220;2023-12-07T02:36:28;29.37;;;11.53;;
4462;SDS011;2244;50.200;8.220;2023-12-07T02:38:58;33.10;;;12.30;;
4462;SDS011;2244;50.200;8.220;2023-12-07T02:41:27;31.00;;;12.47;;
4462;SDS011;2244;50.200;8.220;2023-12-07T02:43:55;31.00;;;10.90;;
4462;SDS011;2244;50.200;8.220;2023-12-07T02:46:24;31.43;;;11.87;;
4462;SDS011;2244;50.200;8.220;2023-12-07T02:48:52;31.83;;;11.47;;
4462;SDS011;2244;50.200;8.220;2023-12-07T02:51:19;32.13;;;11.47;;
4462;SDS011;2244;50.200;8.220;2023-12-07T02:53:47;31.77;;;12.03;;
4462;SDS011;2244;50.200;8.220;2023-12-07T02:56:14;30.00;;;10.33;;
4462;SDS011;2244;50.200;8.220;2023-12-07T02:58:42;28.77;;;11.00;;
4462;SDS011;2244;50.200;8.220;2023-12-07T03:01:09;33.63;;;11.93;;
4462;SDS011;2244;50.200;8.220;2023-12-07T03:03:37;30.00;;;12.40;;
4462;SDS011;2244;50.200;8.220;2023-12-07T03:06:06;32.40;;;13.00;;
4462;SDS011;2244;50.200;8.220;2023-12-07T03:08:34;29.90;;;12.00;;
4462;SDS011;2244;50.200;8.220;2023-12-07T03:11:01;30.73;;;11.53;;
4462;SDS011;2244;50.200;8.220;2023-12-07T03:13:29;31.97;;;11.40;;
4462;SDS011;2244;50.200;8.220;2023-12-07T03:15:56;27.90;;;10.93;;
4462;SDS011;2244;50.200;8.220;2023-12-07T03:18:24;32.13;;;12.93;;
4462;SDS011;2244;50.200;8.220;2023-12-07T03:20:52;33.33;;;13.40;;
4462;SDS011;2244;50.200;8.220;2023-12-07T03:23:19;32.27;;;11.70;;
4462;SDS011;2244;50.200;8.220;2023-12-07T03:25:46;29.33;;;11.43;;
4462;SDS011;2244;50.200;8.220;2023-12-07T03:28:14;34.37;;;12.70;;
4462;SDS011;2244;50.200;8.220;2023-12-07T03:30:42;29.33;;;12.20;;
4462;SDS011;2244;50.200;8.220;2023-12-07T03:33:09;33.03;;;12.80;;
4462;SDS011;2244;50.200;8.220;2023-12-07T03:35:37;33.77;;;13.33;;
4462;SDS011;2244;50.200;8.220;2023-12-07T03:38:04;34.07;;;13.57;;
4462;SDS011;2244;50.200;8.220;2023-12-07T03:40:32;35.20;;;14.20;;
4462;SDS011;2244;50.200;8.220;2023-12-07T03:42:59;32.20;;;13.30;;
4462;SDS011;2244;50.200;8.220;2023-12-07T03:45:29;30.10;;;12.70;;
4462;SDS011;2244;50.200;8.220;2023-12-07T03:47:56;34.07;;;13.40;;
4462;SDS011;2244;50.200;8.220;2023-12-07T03:50:24;37.40;;;13.27;;
4462;SDS011;2244;50.200;8.220;2023-12-07T03:52:52;34.90;;;13.80;;
4462;SDS011;2244;50.200;8.220;2023-12-07T03:55:27;34.80;;;14.00;;
4462;SDS011;2244;50.200;8.220;2023-12-07T03:57:54;33.93;;;14.77;;
4462;SDS011;2244;50.200;8.220;2023-12-07T04:00:22;32.50;;;13.80;;
4462;SDS011;2244;50.200;8.220;2023-12-07T04:02:49;34.10;;;14.33;;
4462;SDS011;2244;50.200;8.220;2023-12-07T04:05:17;35.30;;;14.23;;
4462;SDS011;2244;50.200;8.220;2023-12-07T04:07:44;36.40;;;13.80;;
4462;SDS011;2244;50.200;8.220;2023-12-07T04:10:12;34.53;;;14.30;;
4462;SDS011;2244;50.200;8.220;2023-12-07T04:12:39;37.23;;;13.00;;
4462;SDS011;2244;50.200;8.220;2023-12-07T04:15:07;32.43;;;12.37;;
4462;SDS011;2244;50.200;8.220;2023-12-07T04:17:35;31.80;;;12.60;;
4462;SDS011;2244;50.200;8.220;2023-12-07T04:20:02;31.77;;;13.33;;
4462;SDS011;2244;50.200;8.220;2023-12-07T04:22:31;35.47;;;13.93;;
4462;SDS011;2244;50.200;8.220;2023-12-07T04:24:58;31.93;;;14.13;;
4462;SDS011;2244;50.200;8.220;2023-12-07T04:27:26;32.37;;;14.10;;
4462;SDS011;2244;50.200;8.220;2023-12-07T04:29:53;34.50;;;11.77;;
4462;SDS011;2244;50.200;8.220;2023-12-07T04:32:20;32.07;;;12.23;;
4462;SDS011;2244;50.200;8.220;2023-12-07T04:34:51;36.63;;;13.10;;
4462;SDS011;2244;50.200;8.220;2023-12-07T04:37:20;30.77;;;12.37;;
4462;SDS011;2244;50.200;8.220;2023-12-07T04:39:47;30.87;;;11.27;;
4462;SDS011;2244;50.200;8.220;2023-12-07T04:42:20;29.83;;;12.13;;
4462;SDS011;2244;50.200;8.220;2023-12-07T04:44:44;31.77;;;13.60;;
4462;SDS011;2244;50.200;8.220;2023-12-07T04:47:11;32.20;;;12.50;;
4462;SDS011;2244;50.200;8.220;2023-12-07T04:49:45;35.23;;;13.43;;
4462;SDS011;2244;50.200;8.220;2023-12-07T04:52:13;36.30;;;13.30;;
4462;SDS011;2244;50.200;8.220;2023-12-07T04:54:40;30.63;;;11.80;;
4462;SDS011;2244;50.200;8.220;2023-12-07T04:57:15;34.30;;;12.87;;
4462;SDS011;2244;50.200;8.220;2023-12-07T04:59:42;30.97;;;11.50;;
4462;SDS011;2244;50.200;8.220;2023-12-07T05:02:14;28.83;;;10.93;;
4462;SDS011;2244;50.200;8.220;2023-12-07T05:04:43;39.73;;;12.50;;
4462;SDS011;2244;50.200;8.220;2023-12-07T05:07:12;36.23;;;12.13;;
4462;SDS011;2244;50.200;8.220;2023-12-07T05:09:42;32.87;;;11.67;;
4462;SDS011;2244;50.200;8.220;2023-12-07T05:12:10;31.37;;;11.90;;
4462;SDS011;2244;50.200;8.220;2023-12-07T05:14:37;29.77;;;11.47;;
4462;SDS011;2244;50.200;8.220;2023-12-07T05:17:05;28.17;;;10.60;;
4462;SDS011;2244;50.200;8.220;2023-12-07T05:19:32;30.73;;;11.73;;
4462;SDS011;2244;50.200;8.220;2023-12-07T05:22:00;30.40;;;11.97;;
4462;SDS011;2244;50.200;8.220;2023-12-07T05:24:27;27.87;;;11.80;;
4462;SDS011;2244;50.200;8.220;2023-12-07T05:26:56;31.40;;;12.17;;
4462;SDS011;2244;50.200;8.220;2023-12-07T05:29:24;30.37;;;11.60;;
4462;SDS011;2244;50.200;8.220;2023-12-07T05:31:52;31.03;;;11.10;;
4462;SDS011;2244;50.200;8.220;2023-12-07T05:34:20;31.37;;;11.33;;
4462;SDS011;2244;50.200;8.220;2023-12-07T05:36:47;31.30;;;11.70;;
4462;SDS011;2244;50.200;8.220;2023-12-07T05:39:15;32.10;;;12.03;;
4462;SDS011;2244;50.200;8.220;2023-12-07T05:41:44;38.00;;;12.97;;
4462;SDS011;2244;50.200;8.220;2023-12-07T05:44:13;30.03;;;11.30;;
4462;SDS011;2244;50.200;8.220;2023-12-07T05:46:41;29.90;;;11.30;;
4462;SDS011;2244;50.200;8.220;2023-12-07T05:49:10;31.17;;;11.10;;
4462;SDS011;2244;50.200;8.220;2023-12-07T05:51:37;27.97;;;10.40;;
4462;SDS011;2244;50.200;8.220;2023-12-07T05:54:06;29.77;;;11.00;;
4462;SDS011;2244;50.200;8.220;2023-12-07T05:56:33;33.63;;;12.03;;
4462;SDS011;2244;50.200;8.220;2023-12-07T05:59:01;28.87;;;11.40;;
4462;SDS011;2244;50.200;8.220;2023-12-07T06:01:28;30.13;;;11.90;;
4462;SDS011;2244;50.200;8.220;2023-12-07T06:03:56;29.13;;;11.97;;
4462;SDS011;2244;50.200;8.220;2023-12-07T06:06:23;29.80;;;11.00;;
4462;SDS011;2244;50.200;8.220;2023-12-07T06:08:51;31.27;;;11.53;;
4462;SDS011;2244;50.200;8.220;2023-12-07T06:11:18;31.57;;;11.27;;
4462;SDS011;2244;50.200;8.220;2023-12-07T06:13:46;35.07;;;12.27;;
4462;SDS011;2244;50.200;8.220;2023-12-07T06:16:13;32.70;;;12.07;;
4462;SDS011;2244;50.200;8.220;2023-12-07T06:18:41;33.20;;;12.97;;
4462;SDS011;2244;50.200;8.220;2023-12-07T06:21:09;35.13;;;12.70;;
4462;SDS011;2244;50.200;8.220;2023-12-07T06:23:36;37.07;;;14.70;;
4462;SDS011;2244;50.200;8.220;2023-12-07T06:26:04;36.17;;;13.67;;
4462;SDS011;2244;50.200;8.220;2023-12-07T06:28:32;49.97;;;14.60;;
4462;SDS011;2244;50.200;8.220;2023-12-07T06:31:04;35.90;;;13.93;;
4462;SDS011;2244;50.200;8.220;2023-12-07T06:33:29;58.97;;;13.20;;
4462;SDS011;2244;50.200;8.220;2023-12-07T06:35:56;40.40;;;12.47;;
4462;SDS011;2244;50.200;8.220;2023-12-07T06:38:24;41.63;;;14.37;;
4462;SDS011;2244;50.200;8.220;2023-12-07T06:40:51;43.70;;;13.37;;
4462;SDS011;2244;50.200;8.220;2023-12-07T06:43:19;32.07;;;12.20;;
4462;SDS011;2244;50.200;8.220;2023-12-07T06:45:46;33.00;;;13.50;;
4462;SDS011;2244;50.200;8.220;2023-12-07T06:48:14;30.63;;;11.40;;
4462;SDS011;2244;50.200;8.220;2023-12-07T06:50:41;27.70;;;9.77;;
4462;SDS011;2244;50.200;8.220;2023-12-07T06:53:09;28.60;;;11.10;;
4462;SDS011;2244;50.200;8.220;2023-12-07T06:55:36;28.80;;;11.00;;
4462;SDS011;2244;50.200;8.220;2023-12-07T06:58:07;26.50;;;9.40;;
4462;SDS011;2244;50.200;8.220;2023-12-07T07:00:36;26.33;;;9.90;;
4462;SDS011;2244;50.200;8.220;2023-12-07T07:03:04;30.17;;;10.30;;
4462;SDS011;2244;50.200;8.220;2023-12-07T07:05:32;27.63;;;10.20;;
4462;SDS011;2244;50.200;8.220;2023-12-07T07:08:00;28.87;;;10.17;;
4462;SDS011;2244;50.200;8.220;2023-12-07T07:10:27;29.83;;;11.87;;
4462;SDS011;2244;50.200;8.220;2023-12-07T07:12:58;29.43;;;10.70;;
4462;SDS011;2244;50.200;8.220;2023-12-07T07:15:24;31.10;;;11.73;;
4462;SDS011;2244;50.200;8.220;2023-12-07T07:17:51;26.47;;;9.20;;
4462;SDS011;2244;50.200;8.220;2023-12-07T07:20:19;25.60;;;9.23;;
4462;SDS011;2244;50.200;8.220;2023-12-07T07:22:47;26.27;;;8.33;;
4462;SDS011;2244;50.200;8.220;2023-12-07T07:25:14;25.90;;;9.80;;
4462;SDS011;2244;50.200;8.220;2023-12-07T07:27:43;26.30;;;9.20;;
4462;SDS011;2244;50.200;8.220;2023-12-07T07:30:11;24.60;;;8.30;;
4462;SDS011;2244;50.200;8.220;2023-12-07T07:32:39;24.57;;;8.07;;
4462;SDS011;2244;50.200;8.220;2023-12-07T07:35:07;24.43;;;8.13;;
4462;SDS011;2244;50.200;8.220;2023-12-07T07:37:35;24.70;;;8.63;;
4462;SDS011;2244;50.200;8.220;2023-12-07T07:40:02;23.20;;;7.60;;
4462;SDS011;2244;50.200;8.220;2023-12-07T07:42:31;24.50;;;8.27;;
4462;SDS011;2244;50.200;8.220;2023-12-07T07:44:59;25.20;;;8.60;;
4462;SDS011;2244;50.200;8.220;2023-12-07T07:47:26;25.13;;;7.90;;
4462;SDS011;2244;50.200;8.220;2023-12-07T07:49:54;24.77;;;8.10;;
4462;SDS011;2244;50.200;8.220;2023-12-07T07:52:21;24.20;;;7.90;;
4462;SDS011;2244;50.200;8.220;2023-12-07T07:54:49;24.10;;;7.83;;
4462;SDS011;2244;50.200;8.220;2023-12-07T07:57:16;25.73;;;8.40;;
4462;SDS011;2244;50.200;8.220;2023-12-07T07:59:44;24.57;;;8.33;;
4462;SDS011;2244;50.200;8.220;2023-12-07T08:02:12;25.27;;;8.67;;
4462;SDS011;2244;50.200;8.220;2023-12-07T08:04:39;23.77;;;8.17;;
4462;SDS011;2244;50.200;8.220;2023-12-07T08:07:07;25.93;;;8.07;;
4462;SDS011;2244;50.200;8.220;2023-12-07T08:09:34;25.17;;;8.10;;
4462;SDS011;2244;50.200;8.220;2023-12-07T08:12:02;24.23;;;7.90;;
4462;SDS011;2244;50.200;8.220;2023-12-07T08:14:30;23.77;;;7.93;;
4462;SDS011;2244;50.200;8.220;2023-12-07T08:16:57;23.37;;;7.83;;
4462;SDS011;2244;50.200;8.220;2023-12-07T08:19:25;21.90;;;6.87;;
4462;SDS011;2244;50.200;8.220;2023-12-07T08:21:52;23.63;;;8.03;;
4462;SDS011;2244;50.200;8.220;2023-12-07T08:24:19;22.60;;;7.17;;
4462;SDS011;2244;50.200;8.220;2023-12-07T08:26:47;23.90;;;8.30;;
4462;SDS011;2244;50.200;8.220;2023-12-07T08:29:14;24.57;;;8.03;;
4462;SDS011;2244;50.200;8.220;2023-12-07T08:31:42;23.37;;;8.00;;
4462;SDS011;2244;50.200;8.220;2023-12-07T08:34:09;25.10;;;8.37;;
4462;SDS011;2244;50.200;8.220;2023-12-07T08:36:40;24.77;;;8.37;;
4462;SDS011;2244;50.200;8.220;2023-12-07T08:39:07;24.30;;;8.30;;
4462;SDS011;2244;50.200;8.220;2023-12-07T08:41:36;23.57;;;7.63;;
4462;SDS011;2244;50.200;8.220;2023-12-07T08:44:04;23.23;;;8.00;;
4462;SDS011;2244;50.200;8.220;2023-12-07T08:46:32;25.43;;;8.80;;
4462;SDS011;2244;50.200;8.220;2023-12-07T08:49:01;22.70;;;7.80;;
4462;SDS011;2244;50.200;8.220;2023-12-07T08:51:32;24.97;;;8.70;;
4462;SDS011;2244;50.200;8.220;2023-12-07T08:54:00;25.23;;;8.37;;
4462;SDS011;2244;50.200;8.220;2023-12-07T08:56:28;24.27;;;8.63;;
4462;SDS011;2244;50.200;8.220;2023-12-07T08:58:56;23.27;;;7.83;;
4462;SDS011;2244;50.200;8.220;2023-12-07T09:01:24;24.90;;;9.10;;
4462;SDS011;2244;50.200;8.220;2023-12-07T09:03:54;24.83;;;8.90;;
4462;SDS011;2244;50.200;8.220;2023-12-07T09:06:22;24.93;;;8.80;;
4462;SDS011;2244;50.200;8.220;2023-12-07T09:08:51;23.90;;;8.63;;
4462;SDS011;2244;50.200;8.220;2023-12-07T09:11:19;25.97;;;9.03;;
4462;SDS011;2244;50.200;8.220;2023-12-07T09:13:47;28.70;;;10.10;;
4462;SDS011;2244;50.200;8.220;2023-12-07T09:16:15;27.73;;;9.40;;
4462;SDS011;2244;50.200;8.220;2023-12-07T09:18:42;30.53;;;11.80;;
4462;SDS011;2244;50.200;8.220;2023-12-07T09:21:12;31.17;;;12.10;;
4462;SDS011;2244;50.200;8.220;2023-12-07T09:23:40;29.97;;;11.80;;
4462;SDS011;2244;50.200;8.220;2023-12-07T09:26:07;29.70;;;12.37;;
4462;SDS011;2244;50.200;8.220;2023-12-07T09:28:35;30.00;;;12.23;;
4462;SDS011;2244;50.200;8.220;2023-12-07T09:31:04;32.27;;;12.97;;
4462;SDS011;2244;50.200;8.220;2023-12-07T09:33:31;27.90;;;12.00;;
4462;SDS011;2244;50.200;8.220;2023-12-07T09:35:59;32.60;;;13.27;;
4462;SDS011;2244;50.200;8.220;2023-12-07T09:38:26;30.60;;;12.77;;
4462;SDS011;2244;50.200;8.220;2023-12-07T09:40:54;31.00;;;12.83;;
4462;SDS011;2244;50.200;8.220;2023-12-07T09:43:22;30.93;;;12.00;;
4462;SDS011;2244;50.200;8.220;2023-12-07T09:45:50;28.60;;;11.57;;
4462;SDS011;2244;50.200;8.220;2023-12-07T09:48:18;29.60;;;12.50;;
4462;SDS011;2244;50.200;8.220;2023-12-07T09:50:46;28.80;;;11.80;;
4462;SDS011;2244;50.200;8.220;2023-12-07T09:53:14;32.07;;;13.03;;
4462;SDS011;2244;50.200;8.220;2023-12-07T09:55:41;31.57;;;13.90;;
4462;SDS011;2244;50.200;8.220;2023-12-07T09:58:09;33.07;;;13.97;;
4462;SDS011;2244;50.200;8.220;2023-12-07T10:00:37;31.27;;;12.33;;
4462;SDS011;2244;50.200;8.220;2023-12-07T10:03:05;30.63;;;13.20;;
4462;SDS011;2244;50.200;8.220;2023-12-07T10:06:11;31.07;;;13.20;;
4462;SDS011;2244;50.200;8.220;2023-12-07T10:08:13;29.33;;;12.70;;
4462;SDS011;2244;50.200;8.220;2023-12-07T10:10:41;30.83;;;13.73;;
4462;SDS011;2244;50.200;8.220;2023-12-07T10:13:09;30.53;;;13.10;;
4462;SDS011;2244;50.200;8.220;2023-12-07T10:15:38;30.70;;;12.37;;
4462;SDS011;2244;50.200;8.220;2023-12-07T10:18:05;28.80;;;12.20;;
4462;SDS011;2244;50.200;8.220;2023-12-07T10:20:34;32.53;;;13.30;;
4462;SDS011;2244;50.200;8.220;2023-12-07T10:23:04;33.47;;;12.87;;
4462;SDS011;2244;50.200;8.220;2023-12-07T10:25:32;32.17;;;13.33;;
4462;SDS011;2244;50.200;8.220;2023-12-07T10:28:00;32.47;;;13.37;;
4462;SDS011;2244;50.200;8.220;2023-12-07T10:30:29;30.73;;;13.23;;
4462;SDS011;2244;50.200;8.220;2023-12-07T10:32:57;32.03;;;13.63;;
4462;SDS011;2244;50.200;8.220;2023-12-07T10:35:25;31.73;;;13.50;;
4462;SDS011;2244;50.200;8.220;2023-12-07T10:37:54;33.20;;;13.97;;
4462;SDS011;2244;50.200;8.220;2023-12-07T10:40:22;31.87;;;13.40;;
4462;SDS011;2244;50.200;8.220;2023-12-07T10:42:49;32.27;;;13.40;;
4462;SDS011;2244;50.200;8.220;2023-12-07T10:45:18;35.13;;;13.50;;
4462;SDS011;2244;50.200;8.220;2023-12-07T10:47:48;34.60;;;15.43;;
4462;SDS011;2244;50.200;8.220;2023-12-07T10:50:16;32.03;;;14.10;;
4462;SDS011;2244;50.200;8.220;2023-12-07T10:52:48;30.37;;;13.50;;
4462;SDS011;2244;50.200;8.220;2023-12-07T10:55:28;30.23;;;13.47;;
4462;SDS011;2244;50.200;8.220;2023-12-07T10:57:47;29.87;;;12.40;;
4462;SDS011;2244;50.200;8.220;2023-12-07T11:00:15;33.90;;;14.67;;
4462;SDS011;2244;50.200;8.220;2023-12-07T11:02:43;28.47;;;11.90;;
4462;SDS011;2244;50.200;8.220;2023-12-07T11:05:11;31.50;;;13.37;;
4462;SDS011;2244;50.200;8.220;2023-12-07T11:07:46;30.97;;;11.37;;
4462;SDS011;2244;50.200;8.220;2023-12-07T11:10:19;33.10;;;10.77;;
4462;SDS011;2244;50.200;8.220;2023-12-07T11:12:47;31.00;;;11.40;;
4462;SDS011;2244;50.200;8.220;2023-12-07T11:15:15;29.27;;;12.00;;
4462;SDS011;2244;50.200;8.220;2023-12-07T11:17:54;28.47;;;10.90;;
4462;SDS011;2244;50.200;8.220;2023-12-07T11:20:20;27.97;;;11.20;;
4462;SDS011;2244;50.200;8.220;2023-12-07T11:22:48;28.23;;;11.27;;
4462;SDS011;2244;50.200;8.220;2023-12-07T11:25:16;32.63;;;11.27;;
4462;SDS011;2244;50.200;8.220;2023-12-07T11:27:44;28.80;;;11.23;;
4462;SDS011;2244;50.200;8.220;2023-12-07T11:30:16;26.37;;;10.60;;
4462;SDS011;2244;50.200;8.220;2023-12-07T11:32:44;29.60;;;10.77;;
4462;SDS011;2244;50.200;8.220;2023-12-07T11:35:12;29.20;;;10.47;;
4462;SDS011;2244;50.200;8.220;2023-12-07T11:40:44;29.40;;;11.77;;
4462;SDS011;2244;50.200;8.220;2023-12-07T11:43:17;29.77;;;10.60;;
4462;SDS011;2244;50.200;8.220;2023-12-07T11:45:48;31.40;;;11.90;;
4462;SDS011;2244;50.200;8.220;2023-12-07T11:48:16;27.20;;;11.20;;
4462;SDS011;2244;50.200;8.220;2023-12-07T11:51:04;30.73;;;10.20;;
4462;SDS011;2244;50.200;8.220;2023-12-07T11:53:19;29.27;;;11.03;;
4462;SDS011;2244;50.200;8.220;2023-12-07T11:55:47;27.60;;;10.40;;
4462;SDS011;2244;50.200;8.220;2023-12-07T11:58:15;31.20;;;11.57;;
4462;SDS011;2244;50.200;8.220;2023-12-07T12:00:43;29.80;;;12.47;;
4462;SDS011;2244;50.200;8.220;2023-12-07T12:03:13;28.23;;;11.87;;
4462;SDS011;2244;50.200;8.220;2023-12-07T12:05:41;27.43;;;11.07;;
4462;SDS011;2244;50.200;8.220;2023-12-07T12:08:11;27.10;;;10.97;;
4462;SDS011;2244;50.200;8.220;2023-12-07T12:10:39;31.90;;;12.00;;
4462;SDS011;2244;50.200;8.220;2023-12-07T12:13:07;30.63;;;11.20;;
4462;SDS011;2244;50.200;8.220;2023-12-07T12:15:34;30.63;;;12.00;;
4462;SDS011;2244;50.200;8.220;2023-12-07T12:18:02;29.23;;;12.07;;
4462;SDS011;2244;50.200;8.220;2023-12-07T12:20:31;30.03;;;12.07;;
4462;SDS011;2244;50.200;8.220;2023-12-07T12:22:59;30.50;;;12.13;;
4462;SDS011;2244;50.200;8.220;2023-12-07T12:25:27;30.33;;;12.13;;
4462;SDS011;2244;50.200;8.220;2023-12-07T12:28:03;30.57;;;13.50;;
4462;SDS011;2244;50.200;8.220;2023-12-07T12:30:30;30.57;;;11.03;;
4462;SDS011;2244;50.200;8.220;2023-12-07T12:32:58;29.73;;;10.87;;
4462;SDS011;2244;50.200;8.220;2023-12-07T12:35:29;28.67;;;10.97;;
4462;SDS011;2244;50.200;8.220;2023-12-07T12:37:57;28.57;;;11.03;;
4462;SDS011;2244;50.200;8.220;2023-12-07T12:40:26;29.43;;;12.23;;
4462;SDS011;2244;50.200;8.220;2023-12-07T12:42:53;30.30;;;12.83;;
4462;SDS011;2244;50.200;8.220;2023-12-07T12:45:23;31.67;;;12.97;;
4462;SDS011;2244;50.200;8.220;2023-12-07T12:47:50;35.30;;;13.90;;
4462;SDS011;2244;50.200;8.220;2023-12-07T12:53:04;35.23;;;15.53;;
4462;SDS011;2244;50.200;8.220;2023-12-07T12:55:35;36.17;;;15.30;;
4462;SDS011;2244;50.200;8.220;2023-12-07T12:58:03;34.03;;;15.43;;
4462;SDS011;2244;50.200;8.220;2023-12-07T13:00:31;34.27;;;14.07;;
4462;SDS011;2244;50.200;8.220;2023-12-07T13:03:05;31.27;;;14.00;;
4462;SDS011;2244;50.200;8.220;2023-12-07T13:05:30;35.40;;;15.83;;
4462;SDS011;2244;50.200;8.220;2023-12-07T13:07:59;35.37;;;16.47;;
4462;SDS011;2244;50.200;8.220;2023-12-07T13:10:30;31.50;;;12.60;;
4462;SDS011;2244;50.200;8.220;2023-12-07T13:12:58;31.97;;;13.67;;
4462;SDS011;2244;50.200;8.220;2023-12-07T13:15:25;31.90;;;13.03;;
4462;SDS011;2244;50.200;8.220;2023-12-07T13:17:53;32.37;;;13.80;;
4462;SDS011;2244;50.200;8.220;2023-12-07T13:20:21;31.03;;;12.17;;
4462;SDS011;2244;50.200;8.220;2023-12-07T13:22:49;30.60;;;11.67;;
4462;SDS011;2244;50.200;8.220;2023-12-07T13:25:16;31.23;;;11.27;;
4462;SDS011;2244;50.200;8.220;2023-12-07T13:27:44;30.63;;;12.03;;
4462;SDS011;2244;50.200;8.220;2023-12-07T13:30:11;29.40;;;10.40;;
4462;SDS011;2244;50.200;8.220;2023-12-07T13:32:40;29.03;;;11.23;;
4462;SDS011;2244;50.200;8.220;2023-12-07T13:35:08;28.90;;;10.90;;
4462;SDS011;2244;50.200;8.220;2023-12-07T13:37:36;30.83;;;12.30;;
4462;SDS011;2244;50.200;8.220;2023-12-07T13:40:04;30.73;;;11.87;;
4462;SDS011;2244;50.200;8.220;2023-12-07T13:42:33;31.83;;;11.53;;
4462;SDS011;2244;50.200;8.220;2023-12-07T13:45:01;33.20;;;12.60;;
4462;SDS011;2244;50.200;8.220;2023-12-07T13:47:28;33.00;;;12.60;;
4462;SDS011;2244;50.200;8.220;2023-12-07T13:50:01;33.93;;;13.70;;
4462;SDS011;2244;50.200;8.220;2023-12-07T13:52:29;31.87;;;12.30;;
4462;SDS011;2244;50.200;8.220;2023-12-07T13:54:57;31.57;;;12.37;;
4462;SDS011;2244;50.200;8.220;2023-12-07T13:57:24;33.10;;;13.37;;
4462;SDS011;2244;50.200;8.220;2023-12-07T13:59:54;36.63;;;12.70;;
4462;SDS011;2244;50.200;8.220;2023-12-07T14:02:22;29.70;;;10.83;;
4462;SDS011;2244;50.200;8.220;2023-12-07T14:04:50;31.37;;;11.73;;
4462;SDS011;2244;50.200;8.220;2023-12-07T14:07:18;31.03;;;11.20;;
4462;SDS011;2244;50.200;8.220;2023-12-07T14:09:48;29.37;;;10.70;;
4462;SDS011;2244;50.200;8.220;2023-12-07T14:12:18;32.23;;;11.30;;
4462;SDS011;2244;50.200;8.220;2023-12-07T14:14:46;30.87;;;11.30;;
4462;SDS011;2244;50.200;8.220;2023-12-07T14:17:14;32.33;;;12.10;;
4462;SDS011;2244;50.200;8.220;2023-12-07T14:19:42;31.67;;;11.77;;
4462;SDS011;2244;50.200;8.220;2023-12-07T14:22:09;30.37;;;12.30;;
4462;SDS011;2244;50.200;8.220;2023-12-07T14:24:37;31.70;;;11.43;;
4462;SDS011;2244;50.200;8.220;2023-12-07T14:27:07;32.93;;;13.70;;
4462;SDS011;2244;50.200;8.220;2023-12-07T14:29:36;34.97;;;15.13;;
4462;SDS011;2244;50.200;8.220;2023-12-07T14:32:03;30.80;;;12.83;;
4462;SDS011;2244;50.200;8.220;2023-12-07T14:34:31;30.83;;;11.30;;
4462;SDS011;2244;50.200;8.220;2023-12-07T14:37:00;29.50;;;11.03;;
4462;SDS011;2244;50.200;8.220;2023-12-07T14:39:29;31.30;;;12.60;;
4462;SDS011;2244;50.200;8.220;2023-12-07T14:41:57;32.70;;;12.63;;
4462;SDS011;2244;50.200;8.220;2023-12-07T14:44:24;30.07;;;12.80;;
4462;SDS011;2244;50.200;8.220;2023-12-07T14:46:53;36.33;;;13.73;;
4462;SDS011;2244;50.200;8.220;2023-12-07T14:49:21;33.93;;;13.27;;
4462;SDS011;2244;50.200;8.220;2023-12-07T14:51:48;34.83;;;14.13;;
4462;SDS011;2244;50.200;8.220;2023-12-07T14:54:16;34.00;;;14.60;;
4462;SDS011;2244;50.200;8.220;2023-12-07T14:56:45;35.37;;;15.53;;
4462;SDS011;2244;50.200;8.220;2023-12-07T14:59:13;32.47;;;13.50;;
4462;SDS011;2244;50.200;8.220;2023-12-07T15:01:41;33.20;;;13.00;;
4462;SDS011;2244;50.200;8.220;2023-12-07T15:04:08;35.50;;;12.17;;